createdAt,value
2023-01-30T00:01:46.860Z,-4.17
2023-01-30T00:04:16.160Z,-4.23
2023-01-30T00:06:43.863Z,-4.27
2023-01-30T00:09:15.057Z,-4.28
2023-01-30T00:11:42.630Z,-4.34
2023-01-30T00:14:09.459Z,-4.35
2023-01-30T00:16:36.377Z,-4.35
2023-01-30T00:19:03.231Z,-4.51
2023-01-30T00:21:30.183Z,-4.47
2023-01-30T00:23:56.835Z,-4.58
2023-01-30T00:26:23.489Z,-4.87
2023-01-30T00:28:50.618Z,-4.83
2023-01-30T00:31:17.309Z,-4.85
2023-01-30T00:33:44.210Z,-4.78
2023-01-30T00:36:11.269Z,-4.90
2023-01-30T00:38:37.996Z,-5.18
2023-01-30T00:41:05.243Z,-5.15
2023-01-30T00:43:50.826Z,-5.29
2023-01-30T00:46:51.972Z,-5.12
2023-01-30T00:49:19.044Z,-5.09
2023-01-30T00:51:46.673Z,-5.05
2023-01-30T00:54:13.460Z,-4.73
2023-01-30T00:56:40.364Z,-4.70
2023-01-30T00:59:07.092Z,-4.65
2023-01-30T01:01:34.480Z,-4.58
2023-01-30T01:04:01.231Z,-4.99
2023-01-30T01:06:27.919Z,-5.38
2023-01-30T01:08:54.714Z,-5.59
2023-01-30T01:11:24.743Z,-5.74
2023-01-30T01:13:56.891Z,-5.57
2023-01-30T01:16:24.956Z,-5.44
2023-01-30T01:18:52.103Z,-5.39
2023-01-30T01:21:20.379Z,-5.31
2023-01-30T01:23:56.858Z,-5.47
2023-01-30T01:26:24.088Z,-5.21
2023-01-30T01:28:54.896Z,-5.41
2023-01-30T01:31:22.372Z,-5.26
2023-01-30T01:33:49.099Z,-5.20
2023-01-30T01:36:29.388Z,-5.22
2023-01-30T01:39:03.590Z,-5.52
2023-01-30T01:41:30.740Z,-5.62
2023-01-30T01:44:12.853Z,-5.85
2023-01-30T01:46:53.592Z,-5.97
2023-01-30T01:49:25.073Z,-5.73
2023-01-30T01:52:03.962Z,-5.60
2023-01-30T01:54:42.166Z,-5.51
2023-01-30T01:57:15.465Z,-5.50
2023-01-30T01:59:50.705Z,-5.55
2023-01-30T02:02:17.516Z,-5.68
2023-01-30T02:05:03.474Z,-5.60
2023-01-30T02:07:36.471Z,-5.94
2023-01-30T02:10:04.488Z,-5.69
2023-01-30T02:12:31.549Z,-5.60
2023-01-30T02:15:00.418Z,-5.57
2023-01-30T02:17:27.369Z,-5.74
2023-01-30T02:20:12.653Z,-6.02
2023-01-30T02:23:09.967Z,-6.17
2023-01-30T02:26:00.659Z,-6.09
2023-01-30T02:28:50.493Z,-6.09
2023-01-30T02:31:32.487Z,-6.08
2023-01-30T02:34:35.722Z,-6.10
2023-01-30T02:37:12.119Z,-5.99
2023-01-30T02:39:53.806Z,-6.16
2023-01-30T02:43:02.081Z,-6.00
2023-01-30T02:45:36.702Z,-5.80
2023-01-30T02:48:06.258Z,-5.70
2023-01-30T02:50:59.046Z,-5.73
2023-01-30T02:53:26.289Z,-5.64
2023-01-30T02:55:53.063Z,-5.83
2023-01-30T02:58:23.786Z,-6.10
2023-01-30T03:01:16.525Z,-6.28
2023-01-30T03:03:55.266Z,-6.24
2023-01-30T03:06:34.736Z,-6.17
2023-01-30T03:09:43.064Z,-6.67
2023-01-30T03:12:15.978Z,-6.76
2023-01-30T03:14:49.219Z,-6.79
2023-01-30T03:17:18.585Z,-6.76
2023-01-30T03:19:45.533Z,-6.69
2023-01-30T03:22:12.186Z,-6.53
2023-01-30T03:24:38.974Z,-6.46
2023-01-30T03:27:12.963Z,-6.61
2023-01-30T03:29:41.342Z,-6.70
2023-01-30T03:32:08.113Z,-6.61
2023-01-30T03:34:34.801Z,-6.75
2023-01-30T03:37:01.724Z,-6.69
2023-01-30T03:39:28.527Z,-6.72
2023-01-30T03:41:55.354Z,-7.09
2023-01-30T03:44:22.297Z,-6.80
2023-01-30T03:46:49.112Z,-6.41
2023-01-30T03:49:15.867Z,-6.30
2023-01-30T03:51:42.634Z,-6.06
2023-01-30T03:54:09.386Z,-6.05
2023-01-30T03:56:36.039Z,-6.01
2023-01-30T03:59:02.848Z,-5.97
2023-01-30T04:01:29.542Z,-6.15
2023-01-30T04:03:56.220Z,-6.62
2023-01-30T04:06:22.900Z,-6.39
2023-01-30T04:08:53.576Z,-6.35
2023-01-30T04:11:21.198Z,-6.27
2023-01-30T04:13:47.832Z,-6.08
2023-01-30T04:16:20.234Z,-6.09
2023-01-30T04:18:46.933Z,-6.21
2023-01-30T04:21:14.112Z,-6.71
2023-01-30T04:23:41.789Z,-6.66
2023-01-30T04:26:09.013Z,-6.62
2023-01-30T04:28:36.299Z,-6.66
2023-01-30T04:31:03.451Z,-6.52
2023-01-30T04:33:30.271Z,-6.62
2023-01-30T04:36:00.123Z,-6.52
2023-01-30T04:38:28.299Z,-6.57
2023-01-30T04:40:56.599Z,-6.52
2023-01-30T04:43:25.095Z,-6.49
2023-01-30T04:45:52.259Z,-6.71
2023-01-30T04:48:20.079Z,-6.55
2023-01-30T04:50:48.918Z,-6.54
2023-01-30T04:53:16.774Z,-6.41
2023-01-30T04:55:43.745Z,-6.70
2023-01-30T04:58:10.791Z,-6.64
2023-01-30T05:00:37.649Z,-6.89
2023-01-30T05:03:04.476Z,-6.83
2023-01-30T05:05:31.132Z,-7.03
2023-01-30T05:07:57.849Z,-6.77
2023-01-30T05:10:24.623Z,-6.81
2023-01-30T05:12:52.356Z,-6.77
2023-01-30T05:15:19.356Z,-6.49
2023-01-30T05:17:46.227Z,-6.35
2023-01-30T05:20:14.184Z,-6.45
2023-01-30T05:22:40.858Z,-6.35
2023-01-30T05:25:07.969Z,-6.21
2023-01-30T05:27:34.725Z,-6.39
2023-01-30T05:30:01.501Z,-6.13
2023-01-30T05:32:30.540Z,-6.05
2023-01-30T05:34:57.424Z,-6.05
2023-01-30T05:37:25.006Z,-5.97
2023-01-30T05:39:51.965Z,-6.05
2023-01-30T05:42:18.968Z,-6.00
2023-01-30T05:44:46.153Z,-5.92
2023-01-30T05:47:13.227Z,-5.97
2023-01-30T05:49:40.027Z,-6.04
2023-01-30T05:52:06.748Z,-6.24
2023-01-30T05:54:35.256Z,-6.13
2023-01-30T05:57:02.142Z,-5.95
2023-01-30T05:59:28.837Z,-5.76
2023-01-30T06:01:55.481Z,-5.67
2023-01-30T06:04:22.310Z,-5.60
2023-01-30T06:06:50.897Z,-5.67
2023-01-30T06:09:17.758Z,-5.57
2023-01-30T06:11:44.439Z,-5.45
2023-01-30T06:14:11.330Z,-5.27
2023-01-30T06:16:38.115Z,-5.23
2023-01-30T06:19:04.802Z,-5.61
2023-01-30T06:21:31.620Z,-5.42
2023-01-30T06:23:58.610Z,-5.35
2023-01-30T06:26:25.384Z,-5.56
2023-01-30T06:28:52.158Z,-5.73
2023-01-30T06:31:19.265Z,-5.52
2023-01-30T06:33:46.125Z,-5.70
2023-01-30T06:36:12.818Z,-5.71
2023-01-30T06:38:39.504Z,-5.54
2023-01-30T06:41:07.448Z,-5.46
2023-01-30T06:43:34.121Z,-5.41
2023-01-30T06:46:01.009Z,-5.49
2023-01-30T06:48:27.846Z,-5.47
2023-01-30T06:50:54.581Z,-5.43
2023-01-30T06:53:22.567Z,-5.17
2023-01-30T06:55:49.329Z,-4.91
2023-01-30T06:58:16.036Z,-4.62
2023-01-30T07:00:43.602Z,-4.43
2023-01-30T07:03:15.326Z,-4.46
2023-01-30T07:05:43.796Z,-4.24
2023-01-30T07:08:11.072Z,-4.18
2023-01-30T07:10:38.970Z,-4.32
2023-01-30T07:13:06.815Z,-4.65
2023-01-30T07:15:33.856Z,-4.67
2023-01-30T07:18:02.327Z,-4.74
2023-01-30T07:20:31.339Z,-4.38
2023-01-30T07:22:58.165Z,-3.86
2023-01-30T07:25:26.480Z,-3.69
2023-01-30T07:28:01.451Z,-3.60
2023-01-30T07:30:30.031Z,-3.45
2023-01-30T07:32:58.480Z,-3.31
2023-01-30T07:35:27.054Z,-3.26
2023-01-30T07:37:53.881Z,-3.19
2023-01-30T07:40:21.429Z,-3.02
2023-01-30T07:43:02.695Z,-3.02
2023-01-30T07:45:35.866Z,-2.92
2023-01-30T07:48:02.951Z,-3.01
2023-01-30T07:50:29.807Z,-3.09
2023-01-30T07:52:56.546Z,-3.07
2023-01-30T07:55:24.869Z,-2.99
2023-01-30T07:57:51.509Z,-3.08
2023-01-30T08:00:19.021Z,-3.01
2023-01-30T08:02:45.926Z,-2.75
2023-01-30T08:05:12.614Z,-2.99
2023-01-30T08:07:39.223Z,-3.21
2023-01-30T08:10:06.894Z,-3.05
2023-01-30T08:12:33.561Z,-2.68
2023-01-30T08:15:00.551Z,-2.57
2023-01-30T08:17:27.346Z,-2.90
2023-01-30T08:19:54.149Z,-3.01
2023-01-30T08:22:20.934Z,-2.84
2023-01-30T08:24:47.608Z,-3.14
2023-01-30T08:27:14.296Z,-2.66
2023-01-30T08:29:41.330Z,-2.45
2023-01-30T08:32:08.035Z,-2.77
2023-01-30T08:34:36.036Z,-2.73
2023-01-30T08:37:03.524Z,-2.39
2023-01-30T08:39:30.211Z,-2.37
2023-01-30T08:41:57.228Z,-2.24
2023-01-30T08:44:23.926Z,-2.27
2023-01-30T08:46:50.611Z,-2.01
2023-01-30T08:49:17.454Z,-2.29
2023-01-30T08:51:44.307Z,-2.02
2023-01-30T08:54:11.093Z,-1.92
2023-01-30T08:56:37.809Z,-1.54
2023-01-30T08:59:04.454Z,-1.39
2023-01-30T09:01:31.318Z,-1.24
2023-01-30T09:03:58.114Z,-1.14
2023-01-30T09:06:26.273Z,-1.34
2023-01-30T09:08:53.056Z,-1.40
2023-01-30T09:11:19.805Z,-1.33
2023-01-30T09:13:48.755Z,-1.10
2023-01-30T09:16:16.442Z,-1.02
2023-01-30T09:18:44.856Z,-0.91
2023-01-30T09:21:13.294Z,-0.87
2023-01-30T09:23:40.317Z,-1.34
2023-01-30T09:26:09.336Z,-1.10
2023-01-30T09:28:36.181Z,-1.20
2023-01-30T09:31:03.885Z,-1.09
2023-01-30T09:33:30.992Z,-1.34
2023-01-30T09:35:57.753Z,-1.26
2023-01-30T09:38:24.431Z,-1.60
2023-01-30T09:41:00.106Z,-1.65
2023-01-30T09:43:34.130Z,-1.57
2023-01-30T09:46:13.034Z,-1.48
2023-01-30T09:48:46.975Z,-1.61
2023-01-30T09:51:32.521Z,-1.62
2023-01-30T09:54:24.493Z,-1.53
2023-01-30T09:57:24.881Z,-1.63
2023-01-30T10:00:06.117Z,-1.64
2023-01-30T10:02:47.699Z,-1.47
2023-01-30T10:05:14.652Z,-1.54
2023-01-30T10:07:56.729Z,-1.63
2023-01-30T10:10:38.604Z,-1.48
2023-01-30T10:13:11.160Z,-1.52
2023-01-30T10:15:50.026Z,-1.71
2023-01-30T10:18:51.566Z,-1.65
2023-01-30T10:21:50.745Z,-1.69
2023-01-30T10:25:15.674Z,-1.44
2023-01-30T10:27:50.574Z,-1.38
2023-01-30T10:30:18.485Z,-1.45
2023-01-30T10:32:51.550Z,-1.35
2023-01-30T10:35:30.171Z,-1.41
2023-01-30T10:38:15.429Z,-1.48
2023-01-30T10:40:50.823Z,-1.20
2023-01-30T10:43:24.027Z,-1.33
2023-01-30T10:45:55.804Z,-1.50
2023-01-30T10:48:49.980Z,-1.28
2023-01-30T10:51:25.319Z,-1.34
2023-01-30T10:54:03.481Z,-1.27
2023-01-30T10:56:48.878Z,-1.32
2023-01-30T10:59:50.287Z,-1.34
2023-01-30T11:02:26.274Z,-1.43
2023-01-30T11:05:03.733Z,-1.18
2023-01-30T11:07:32.177Z,-1.13
2023-01-30T11:09:59.942Z,-1.19
2023-01-30T11:12:27.417Z,-0.93
2023-01-30T11:15:04.689Z,-1.01
2023-01-30T11:17:37.596Z,-0.89
2023-01-30T11:20:20.773Z,-0.52
2023-01-30T11:22:52.443Z,-0.43
2023-01-30T11:25:23.075Z,-0.09
2023-01-30T11:28:05.678Z,0.01
2023-01-30T11:30:36.712Z,0.05
2023-01-30T11:33:17.083Z,0.16
2023-01-30T11:35:54.392Z,-0.04
2023-01-30T11:38:25.726Z,-0.07
2023-01-30T11:41:18.005Z,-0.10
2023-01-30T11:43:44.911Z,0.13
2023-01-30T11:46:16.007Z,-0.16
2023-01-30T11:49:02.971Z,-0.31
2023-01-30T11:51:47.057Z,-0.61
2023-01-30T11:54:20.243Z,-0.73
2023-01-30T11:56:52.986Z,-0.74
2023-01-30T11:59:31.899Z,-0.74
2023-01-30T12:02:35.801Z,-0.67
2023-01-30T12:05:06.304Z,-0.76
2023-01-30T12:07:35.612Z,-0.82
2023-01-30T12:10:26.332Z,-0.66
2023-01-30T12:12:55.323Z,-0.65
2023-01-30T12:15:35.301Z,-0.81
2023-01-30T12:18:01.915Z,-0.76
2023-01-30T12:20:55.761Z,-0.61
2023-01-30T12:23:52.685Z,-0.62
2023-01-30T12:26:37.941Z,-0.92
2023-01-30T12:29:55.249Z,-0.89
2023-01-30T12:32:26.453Z,-0.81
2023-01-30T12:34:53.296Z,-0.62
2023-01-30T12:37:35.495Z,-0.62
2023-01-30T12:40:17.643Z,-0.87
2023-01-30T12:43:02.940Z,-0.64
2023-01-30T12:45:34.730Z,-0.68
2023-01-30T12:48:07.629Z,-0.86
2023-01-30T12:50:49.589Z,-1.04
2023-01-30T12:53:43.214Z,-0.89
2023-01-30T12:56:15.657Z,-0.90
2023-01-30T12:58:50.555Z,-1.10
2023-01-30T13:01:32.756Z,-1.10
2023-01-30T13:04:46.960Z,-1.01
2023-01-30T13:07:33.241Z,-1.11
2023-01-30T13:10:21.266Z,-1.17
2023-01-30T13:13:07.178Z,-1.04
2023-01-30T13:15:46.097Z,-1.09
2023-01-30T13:18:22.197Z,-1.06
2023-01-30T13:20:55.201Z,-1.24
2023-01-30T13:23:41.538Z,-1.33
2023-01-30T13:26:19.641Z,-1.15
2023-01-30T13:28:53.345Z,-1.15
2023-01-30T13:31:24.866Z,-1.22
2023-01-30T13:34:04.621Z,-1.19
2023-01-30T13:37:01.082Z,-1.19
2023-01-30T13:39:54.243Z,-1.29
2023-01-30T13:42:52.674Z,-1.46
2023-01-30T13:45:27.169Z,-1.37
2023-01-30T13:48:16.883Z,-1.51
2023-01-30T13:50:43.562Z,-1.26
2023-01-30T13:53:28.292Z,-1.38
2023-01-30T13:56:39.606Z,-1.48
2023-01-30T13:59:21.746Z,-1.60
2023-01-30T14:02:04.182Z,-1.58
2023-01-30T14:04:40.278Z,-1.58
2023-01-30T14:07:13.102Z,-1.62
2023-01-30T14:09:46.822Z,-1.57
2023-01-30T14:12:20.248Z,-1.57
2023-01-30T14:15:04.308Z,-1.54
2023-01-30T14:17:31.259Z,-1.55
2023-01-30T14:20:01.779Z,-1.53
2023-01-30T14:22:56.635Z,-1.72
2023-01-30T14:25:23.300Z,-1.78
2023-01-30T14:27:53.111Z,-1.83
2023-01-30T14:30:45.606Z,-1.90
2023-01-30T14:33:21.520Z,-1.97
2023-01-30T14:35:54.275Z,-1.97
2023-01-30T14:38:22.300Z,-1.84
2023-01-30T14:41:23.865Z,-2.07
2023-01-30T14:43:54.381Z,-2.08
2023-01-30T14:46:21.334Z,-2.09
2023-01-30T14:48:50.096Z,-2.05
2023-01-30T14:51:34.722Z,-2.07
2023-01-30T14:54:14.654Z,-1.99
2023-01-30T14:57:16.039Z,-2.15
2023-01-30T14:59:45.778Z,-2.21
2023-01-30T15:02:12.538Z,-2.02
2023-01-30T15:04:50.550Z,-1.93
2023-01-30T15:07:26.395Z,-2.14
2023-01-30T15:10:00.467Z,-2.13
2023-01-30T15:12:43.023Z,-2.27
2023-01-30T15:15:38.973Z,-2.27
2023-01-30T15:18:31.757Z,-2.34
2023-01-30T15:21:41.742Z,-2.44
2023-01-30T15:24:44.744Z,-2.38
2023-01-30T15:27:31.753Z,-2.41
2023-01-30T15:30:45.432Z,-2.41
2023-01-30T15:33:22.937Z,-2.47
2023-01-30T15:35:56.439Z,-2.47
2023-01-30T15:38:31.865Z,-2.34
2023-01-30T15:41:03.118Z,-2.23
2023-01-30T15:44:12.029Z,-2.28
2023-01-30T15:46:48.524Z,-2.39
2023-01-30T15:49:40.297Z,-2.34
2023-01-30T15:52:16.195Z,-2.32
2023-01-30T15:54:52.401Z,-2.29
2023-01-30T15:57:38.604Z,-2.49
2023-01-30T16:00:12.070Z,-2.44
2023-01-30T16:02:38.973Z,-2.44
2023-01-30T16:05:13.492Z,-2.47
2023-01-30T16:07:40.246Z,-2.43
2023-01-30T16:10:19.648Z,-2.50
2023-01-30T16:12:47.939Z,-2.43
2023-01-30T16:15:31.002Z,-2.57
2023-01-30T16:18:06.981Z,-2.48
2023-01-30T16:20:58.902Z,-2.53
2023-01-30T16:23:52.949Z,-2.56
2023-01-30T16:26:21.978Z,-2.63
2023-01-30T16:29:00.729Z,-2.93
2023-01-30T16:31:32.862Z,-2.68
2023-01-30T16:34:00.450Z,-2.74
2023-01-30T16:36:27.125Z,-2.70
2023-01-30T16:38:55.330Z,-2.55
2023-01-30T16:41:40.311Z,-2.67
2023-01-30T16:44:20.794Z,-2.83
2023-01-30T16:47:01.136Z,-2.93
2023-01-30T16:49:39.056Z,-3.10
2023-01-30T16:52:31.504Z,-3.07
2023-01-30T16:55:00.938Z,-3.07
2023-01-30T16:57:43.839Z,-2.97
2023-01-30T17:00:31.993Z,-3.08
2023-01-30T17:03:01.974Z,-2.94
2023-01-30T17:05:40.933Z,-3.05
2023-01-30T17:08:33.242Z,-2.91
2023-01-30T17:11:01.544Z,-3.09
2023-01-30T17:13:44.743Z,-3.06
2023-01-30T17:16:23.494Z,-3.04
2023-01-30T17:18:53.962Z,-3.22
2023-01-30T17:21:23.349Z,-3.23
2023-01-30T17:24:02.805Z,-3.52
2023-01-30T17:26:30.450Z,-3.31
2023-01-30T17:28:57.355Z,-3.37
2023-01-30T17:31:24.183Z,-3.30
2023-01-30T17:33:50.878Z,-3.35
2023-01-30T17:36:24.365Z,-3.35
2023-01-30T17:38:51.674Z,-3.26
2023-01-30T17:41:26.285Z,-3.28
2023-01-30T17:43:52.830Z,-3.37
2023-01-30T17:46:23.538Z,-3.49
2023-01-30T17:48:51.882Z,-3.34
2023-01-30T17:51:18.587Z,-3.32
2023-01-30T17:53:45.342Z,-3.28
2023-01-30T17:56:19.647Z,-3.36
2023-01-30T17:58:46.380Z,-3.44
2023-01-30T18:01:16.229Z,-3.31
2023-01-30T18:03:44.873Z,-3.51
2023-01-30T18:06:14.387Z,-3.46
2023-01-30T18:08:41.835Z,-3.33
2023-01-30T18:11:11.792Z,-3.47
2023-01-30T18:13:47.921Z,-3.40
2023-01-30T18:16:23.465Z,-3.43
2023-01-30T18:18:51.285Z,-3.44
2023-01-30T18:21:18.282Z,-3.52
2023-01-30T18:23:44.982Z,-3.30
2023-01-30T18:26:12.863Z,-3.63
2023-01-30T18:28:39.911Z,-3.43
2023-01-30T18:31:07.019Z,-3.34
2023-01-30T18:33:34.250Z,-3.62
2023-01-30T18:36:12.745Z,-3.67
2023-01-30T18:38:39.494Z,-3.45
2023-01-30T18:41:17.919Z,-3.35
2023-01-30T18:43:48.240Z,-3.19
2023-01-30T18:46:18.840Z,-3.21
2023-01-30T18:48:46.694Z,-3.08
2023-01-30T18:51:16.142Z,-3.22
2023-01-30T18:53:43.649Z,-3.41
2023-01-30T18:56:15.575Z,-3.49
2023-01-30T18:58:42.837Z,-3.66
2023-01-30T19:01:17.562Z,-3.61
2023-01-30T19:03:44.699Z,-3.44
2023-01-30T19:06:18.747Z,-3.21
2023-01-30T19:08:45.843Z,-3.18
2023-01-30T19:11:33.869Z,-3.14
2023-01-30T19:14:00.687Z,-3.27
2023-01-30T19:16:29.721Z,-3.30
2023-01-30T19:18:56.785Z,-3.42
2023-01-30T19:21:24.690Z,-3.53
2023-01-30T19:23:51.851Z,-3.80
2023-01-30T19:26:21.369Z,-3.56
2023-01-30T19:28:50.079Z,-3.42
2023-01-30T19:31:19.092Z,-3.32
2023-01-30T19:33:48.406Z,-3.36
2023-01-30T19:36:19.185Z,-3.30
2023-01-30T19:38:47.426Z,-3.33
2023-01-30T19:41:24.438Z,-3.45
2023-01-30T19:43:52.660Z,-3.36
2023-01-30T19:46:19.751Z,-3.41
2023-01-30T19:48:47.640Z,-3.31
2023-01-30T19:51:17.132Z,-3.30
2023-01-30T19:53:45.652Z,-3.38
2023-01-30T19:56:13.563Z,-3.53
2023-01-30T19:58:40.891Z,-3.46
2023-01-30T20:01:10.127Z,-3.62
2023-01-30T20:03:37.836Z,-3.57
2023-01-30T20:06:07.315Z,-3.59
2023-01-30T20:08:36.476Z,-3.57
2023-01-30T20:11:06.279Z,-3.55
2023-01-30T20:13:38.882Z,-3.56
2023-01-30T20:16:11.864Z,-3.55
2023-01-30T20:18:40.233Z,-3.56
2023-01-30T20:21:19.843Z,-3.47
2023-01-30T20:23:47.782Z,-3.58
2023-01-30T20:26:17.471Z,-3.65
2023-01-30T20:28:45.058Z,-3.82
2023-01-30T20:31:20.418Z,-3.88
2023-01-30T20:33:47.587Z,-4.25
2023-01-30T20:36:18.716Z,-4.22
2023-01-30T20:38:49.098Z,-4.09
2023-01-30T20:41:18.924Z,-4.01
2023-01-30T20:43:49.522Z,-4.15
2023-01-30T20:46:41.644Z,-4.34
2023-01-30T20:49:17.192Z,-4.04
2023-01-30T20:51:44.516Z,-3.90
2023-01-30T20:54:12.976Z,-3.99
2023-01-30T20:56:45.753Z,-3.88
2023-01-30T20:59:15.842Z,-4.00
2023-01-30T21:01:43.257Z,-4.07
2023-01-30T21:04:15.708Z,-4.24
2023-01-30T21:06:45.688Z,-4.33
2023-01-30T21:09:19.264Z,-4.36
2023-01-30T21:11:46.721Z,-4.45
2023-01-30T21:14:14.143Z,-4.67
2023-01-30T21:16:41.160Z,-4.60
2023-01-30T21:19:11.241Z,-4.72
2023-01-30T21:22:04.538Z,-4.51
2023-01-30T21:24:31.260Z,-4.35
2023-01-30T21:26:58.205Z,-4.14
2023-01-30T21:29:27.304Z,-4.06
2023-01-30T21:31:55.671Z,-4.21
2023-01-30T21:34:22.950Z,-4.42
2023-01-30T21:37:08.089Z,-4.42
2023-01-30T21:39:53.465Z,-4.64
2023-01-30T21:42:40.490Z,-4.75
2023-01-30T21:45:07.815Z,-4.84
2023-01-30T21:47:34.524Z,-4.56
2023-01-30T21:50:01.320Z,-4.59
2023-01-30T21:52:27.981Z,-4.33
2023-01-30T21:54:54.760Z,-4.30
2023-01-30T21:57:21.449Z,-4.31
2023-01-30T21:59:48.139Z,-4.48
2023-01-30T22:02:14.837Z,-4.47
2023-01-30T22:04:41.550Z,-4.25
2023-01-30T22:07:08.337Z,-4.60
2023-01-30T22:09:35.044Z,-4.88
2023-01-30T22:12:01.750Z,-4.52
2023-01-30T22:14:28.567Z,-4.37
2023-01-30T22:16:55.256Z,-4.21
2023-01-30T22:19:21.888Z,-4.06
2023-01-30T22:21:48.586Z,-3.95
2023-01-30T22:24:15.392Z,-4.26
2023-01-30T22:26:42.320Z,-4.05
2023-01-30T22:29:09.444Z,-4.02
2023-01-30T22:31:38.726Z,-4.17
2023-01-30T22:34:06.485Z,-4.10
2023-01-30T22:36:34.830Z,-4.42
2023-01-30T22:39:02.712Z,-4.54
2023-01-30T22:41:32.527Z,-4.47
2023-01-30T22:43:59.919Z,-4.54
2023-01-30T22:46:35.234Z,-4.42
2023-01-30T22:49:03.971Z,-4.55
2023-01-30T22:51:33.126Z,-4.67
2023-01-30T22:54:09.191Z,-4.44
2023-01-30T22:56:38.605Z,-4.38
2023-01-30T22:59:06.706Z,-4.67
2023-01-30T23:01:37.090Z,-4.66
2023-01-30T23:04:11.546Z,-4.53
2023-01-30T23:06:39.264Z,-4.59
2023-01-30T23:09:08.476Z,-4.65
2023-01-30T23:11:39.188Z,-4.62
2023-01-30T23:14:14.453Z,-4.88
2023-01-30T23:16:43.702Z,-4.90
2023-01-30T23:19:12.637Z,-4.89
2023-01-30T23:21:45.395Z,-4.94
2023-01-30T23:24:17.000Z,-4.69
2023-01-30T23:26:46.323Z,-4.82
2023-01-30T23:29:16.223Z,-4.91
2023-01-30T23:31:44.577Z,-4.94
2023-01-30T23:34:17.719Z,-4.51
2023-01-30T23:36:45.271Z,-4.82
2023-01-30T23:39:13.578Z,-4.59
2023-01-30T23:41:41.526Z,-4.67
2023-01-30T23:44:09.086Z,-4.94
2023-01-30T23:46:42.395Z,-4.69
2023-01-30T23:49:12.124Z,-4.75
2023-01-30T23:51:40.903Z,-4.60
2023-01-30T23:54:08.798Z,-4.48
2023-01-30T23:56:37.969Z,-4.58
2023-01-30T23:59:05.380Z,-4.64
